Port Lions, AK

10:27 AM AKDT on September 02, 2014 (GMT -0800)
Kodiak | Change Station
CLOSE
Current Station
Airport
Location: Kodiak,
Elevation: 112 ft
Nearby Weather Stations

Elev 112 ft 57.75 °N, 152.49 °W | Updated 34 minutes ago

Scattered Clouds
Scattered Clouds
58 °F
Feels Like 58 °F
N
7
Wind Variable Wind from NE

Today
High -- | Low -- °F
--% Chance of Precip.
Yesterday
High -- | Low -- °F
Precip. -- in
7:15 AM 9:07 PM
First Quarter, 53% visible
Pressure 30.04 in
Visibility 10.0 miles
Clouds Few 2500 ft
Scattered Clouds 15000 ft
Scattered Clouds 25000 ft
Dew Point 46 °F
Humidity 65%
Rainfall 0.00 in
Snow Depth Not available.
UV 1 out of 12
Pollen Not available.
Air Quality Not available.
Flu Activity Not available.
METAR PADQ 021753Z 05006KT 10SM FEW025 SCT150 SCT250 14/08 A3004 RMK AO2 SLP173 T01440078 10161 20078 57002 $

More Conditions Fewer Conditions

Pressure 30.04 in
Visibility 10.0 miles
Clouds Few 2500 ft
Scattered Clouds 15000 ft
Scattered Clouds 25000 ft
Dew Point 46 °F
Humidity 65%
Rainfall 0.00 in
Snow Depth Not available.
UV 1 out of 12
Pollen Not available.
Air Quality Not available.
Flu Activity Not available.
METAR PADQ 021753Z 05006KT 10SM FEW025 SCT150 SCT250 14/08 A3004 RMK AO2 SLP173 T01440078 10161 20078 57002 $

More Conditions Fewer Conditions

10-Day Weather Forecast

Almanac

Astronomy

Sep. 02, 2014 Rise Set
Actual Time 7:15 AM AKDT 9:07 PM AKDT
Civil Twilight 6:33 AM AKDT 9:48 PM AKDT
Nautical Twilight 5:41 AM AKDT 10:40 PM AKDT
Astronomical Twilight 4:37 AM AKDT 11:42 PM AKDT
Moon 4:41 PM AKDT No Moon Set
Length of Visible Light 15h 14m
Length of Day
13h 51m
Tomorrow will be 4m 54s shorter.
First Quarter, 53% of the Moon is Illuminated
Today
First Quarter
Sep 8
Full
Sep 15
Last Quarter
Sep 24
New
Oct 1
First Quarter

Today's Extremes

State Highs State Lows

Community

WunderPhotos

Upload Photos

1,749,727 photos uploaded!

WunderBlogs® & News

Nearby

Snow Depth

Station Depth Elevation
Port Graham 0 in 300 ft
Nuka Glacier 67 in 1250 ft
Mcneil Canyon 1 in 1320 ft
MF Bradley River 2 in 2300 ft
Cooper Lake 3 in 1200 ft

Earthquake Activity

City Distance Mag. Time & Date
No recent earthquake activity has been reported nearby.
Minimum magnitude displayed is 2.5.

Coastal Water Temperatures

Place Temperature
No Stations Reporting

Nearby Weather Stations